Time;durP1;ratioP1;P1;durP2;ratioP2;P2;SDS_P1;SDS_P2;PMS_P1;PMS_P2;Temp;Humidity;BMP_temperature;BMP_pressure;BME280_temperature;BME280_humidity;BME280_pressure;Samples;Min_cycle;Max_cycle;Signal;HPM_P1;HPM_P2
2021/10/12 00:05:24;;;;;;;32.37;23.97;;;;;;;3.88;100.00;100405.31;21010762;28;20240;-64
2021/10/12 00:25:23;;;;;;;33.03;24.33;;;;;;;3.86;100.00;100380.78;21069328;27;20661;-68
2021/10/12 00:35:25;;;;;;;28.97;23.03;;;;;;;3.73;100.00;100378.63;21082932;27;20223;-65
2021/10/12 00:45:29;;;;;;;35.17;24.63;;;;;;;3.62;100.00;100357.91;21098288;27;20228;-67
2021/10/12 00:55:33;;;;;;;40.37;27.20;;;;;;;3.70;100.00;100347.94;21099967;27;20587;-63
2021/10/12 01:05:37;;;;;;;43.87;30.40;;;;;;;3.82;100.00;100336.94;21053956;27;20316;-65
2021/10/12 01:45:30;;;;;;;43.17;27.53;;;;;;;4.29;100.00;100318.44;21146035;27;20595;-65
2021/10/12 01:55:32;;;;;;;42.77;28.67;;;;;;;4.64;100.00;100306.47;21158517;27;20411;-64
2021/10/12 02:05:36;;;;;;;44.57;29.50;;;;;;;5.30;100.00;100301.97;21140047;27;20217;-66
2021/10/12 02:15:38;;;;;;;49.17;34.43;;;;;;;5.80;100.00;100289.13;21127330;27;20257;-65
2021/10/12 02:25:42;;;;;;;52.47;34.47;;;;;;;6.15;100.00;100287.59;21109127;27;20706;-64
2021/10/12 02:35:44;;;;;;;68.80;39.53;;;;;;;6.34;100.00;100290.22;21133265;27;20230;-62
2021/10/12 02:45:48;;;;;;;59.23;38.57;;;;;;;6.47;100.00;100272.78;21092100;27;21092;-65
2021/10/12 02:55:51;;;;;;;47.87;33.33;;;;;;;6.62;100.00;100272.06;21136168;27;20568;-66
2021/10/12 03:05:54;;;;;;;42.03;30.90;;;;;;;6.81;100.00;100264.03;21061674;27;20236;-64
2021/10/12 03:15:56;;;;;;;40.87;28.67;;;;;;;7.05;100.00;100264.59;21049951;28;20228;-57
2021/10/12 03:26:01;;;;;;;37.13;25.90;;;;;;;7.21;100.00;100255.81;21028514;28;20233;-63
2021/10/12 03:36:13;;;;;;;35.63;26.13;;;;;;;7.37;100.00;100250.53;20963105;28;20269;-58
2021/10/12 03:46:17;;;;;;;38.40;27.57;;;;;;;7.45;100.00;100242.19;20949637;28;20544;-62
2021/10/12 03:56:20;;;;;;;41.50;29.73;;;;;;;7.48;100.00;100232.28;20956481;28;20788;-61
2021/10/12 04:06:23;;;;;;;35.83;25.23;;;;;;;7.62;100.00;100222.69;20970730;28;20230;-64
2021/10/12 04:16:25;;;;;;;36.00;24.87;;;;;;;7.66;100.00;100218.94;20973791;28;20595;-61
2021/10/12 04:26:29;;;;;;;35.37;24.27;;;;;;;7.74;100.00;100208.75;20999775;28;20226;-68
2021/10/12 04:46:28;;;;;;;35.10;24.63;;;;;;;7.90;100.00;100196.34;21038429;27;20621;-70
2021/10/12 04:56:30;;;;;;;40.53;25.77;;;;;;;7.90;100.00;100183.94;20958179;27;20224;-67
2021/10/12 05:26:28;;;;;;;38.17;26.03;;;;;;;8.02;100.00;100185.03;21061220;27;20617;-61
2021/10/12 05:36:33;;;;;;;32.10;23.33;;;;;;;8.18;100.00;100187.72;21039752;27;20231;-64
2021/10/12 05:46:40;;;;;;;31.93;23.30;;;;;;;8.33;100.00;100183.34;21118673;27;20813;-63
2021/10/12 05:56:45;;;;;;;29.87;21.40;;;;;;;8.42;100.00;100178.38;21110422;27;20229;-59
2021/10/12 06:06:50;;;;;;;24.70;19.50;;;;;;;8.62;100.00;100171.88;21149335;27;20228;-61
2021/10/12 06:16:52;;;;;;;20.90;17.00;;;;;;;8.93;100.00;100185.09;21198889;27;20232;-59
2021/10/12 06:26:56;;;;;;;18.43;16.33;;;;;;;9.33;100.00;100188.00;21169288;27;20734;-68
2021/10/12 06:36:58;;;;;;;16.07;14.43;;;;;;;9.68;100.00;100185.81;21092853;27;20841;-62
2021/10/12 06:47:02;;;;;;;15.40;13.27;;;;;;;9.86;100.00;100194.47;21042552;27;20240;-65
2021/10/12 06:57:10;;;;;;;13.50;12.10;;;;;;;10.07;100.00;100201.09;21044792;27;20234;-65
2021/10/12 07:07:14;;;;;;;14.47;12.33;;;;;;;10.33;100.00;100208.31;21037505;28;20241;-66
2021/10/12 07:17:16;;;;;;;13.77;10.60;;;;;;;10.32;100.00;100211.91;21045759;27;20644;-59
2021/10/12 07:27:20;;;;;;;13.63;10.30;;;;;;;10.41;100.00;100205.13;21119466;27;20415;-66
2021/10/12 07:37:22;;;;;;;7.87;6.70;;;;;;;10.36;100.00;100208.09;21026190;28;20234;-64
2021/10/12 07:47:26;;;;;;;15.33;9.60;;;;;;;10.46;100.00;100206.56;21103949;27;20270;-66
2021/10/12 07:57:28;;;;;;;9.63;8.03;;;;;;;10.21;100.00;100209.09;21064196;27;20234;-64
2021/10/12 08:07:32;;;;;;;8.53;7.63;;;;;;;10.23;100.00;100191.19;21114587;27;20732;-63
2021/10/12 08:17:34;;;;;;;10.13;8.03;;;;;;;10.36;100.00;100181.44;21019669;27;20225;-65
2021/10/12 08:27:39;;;;;;;7.13;5.07;;;;;;;10.62;100.00;100177.06;21122640;27;20581;-61
2021/10/12 08:37:42;;;;;;;3.60;3.30;;;;;;;11.02;100.00;100182.34;21097685;27;20236;-66
2021/10/12 08:47:45;;;;;;;6.37;3.30;;;;;;;11.22;100.00;100172.97;21114996;27;20221;-59
2021/10/12 08:57:49;;;;;;;3.90;2.90;;;;;;;12.00;100.00;100174.53;21112322;27;20261;-66
2021/10/12 09:07:53;;;;;;;6.23;3.60;;;;;;;11.98;100.00;100175.59;21105403;27;20737;-63
2021/10/12 09:27:56;;;;;;;4.43;3.30;;;;;;;11.90;100.00;100171.66;21057141;27;20560;-62
2021/10/12 09:38:06;;;;;;;3.80;3.33;;;;;;;12.47;100.00;100152.28;20972441;28;20263;-61
2021/10/12 09:48:28;;;;;;;7.50;3.70;;;;;;;12.68;91.35;100152.50;20979296;28;20236;-65
2021/10/12 09:58:32;;;;;;;8.80;3.43;;;;;;;12.12;100.00;100125.47;20989159;28;20228;-63
2021/10/12 10:08:38;;;;;;;12.63;3.13;;;;;;;12.74;97.71;100116.38;20928141;28;20225;-64
2021/10/12 10:18:40;;;;;;;4.10;2.50;;;;;;;13.06;89.29;100114.75;20952926;28;20242;-61
2021/10/12 10:28:44;;;;;;;3.30;2.37;;;;;;;12.84;96.68;100106.66;20931776;28;20232;-66
2021/10/12 10:38:47;;;;;;;2.63;1.87;;;;;;;12.03;99.12;100093.22;20899421;28;20233;-64
2021/10/12 10:48:51;;;;;;;2.97;1.30;;;;;;;12.58;100.00;100072.03;20965249;28;20230;-64
2021/10/12 10:59:24;;;;;;;9.60;6.50;;;;;;;12.87;75.99;100085.00;20918681;28;20857;-65
2021/10/12 11:09:28;;;;;;;4.77;2.63;;;;;;;12.76;84.53;100080.50;20960945;28;20251;-65
2021/10/12 11:19:32;;;;;;;2.67;2.47;;;;;;;13.31;92.01;100060.97;20867332;28;20233;-66
2021/10/12 11:29:36;;;;;;;4.00;2.90;;;;;;;13.84;78.70;100050.41;20882458;28;20227;-61
2021/10/12 11:39:39;;;;;;;5.97;3.13;;;;;;;13.22;85.88;100048.31;20941758;28;21076;-61
2021/10/12 11:49:43;;;;;;;6.47;3.37;;;;;;;12.12;87.73;100033.69;20958603;28;20310;-62
2021/10/12 11:59:47;;;;;;;6.87;4.70;;;;;;;11.61;89.39;100035.69;20935952;28;20222;-64
2021/10/12 12:09:51;;;;;;;6.47;3.93;;;;;;;11.43;95.78;100024.53;20950996;28;20227;-62
2021/10/12 12:19:55;;;;;;;4.70;2.90;;;;;;;11.54;94.48;100005.91;20904241;28;20242;-66
2021/10/12 12:30:00;;;;;;;3.53;2.47;;;;;;;12.01;85.60;99999.72;20913714;28;20677;-62
2021/10/12 12:40:04;;;;;;;3.80;2.73;;;;;;;11.92;82.99;100005.78;20948692;28;20696;-59
2021/10/12 12:50:13;;;;;;;3.33;2.40;;;;;;;12.06;80.55;99992.22;20878403;28;20252;-59
2021/10/12 13:00:15;;;;;;;4.00;2.27;;;;;;;12.36;87.59;99993.50;20955999;28;20227;-60
2021/10/12 13:10:20;;;;;;;2.60;2.30;;;;;;;12.57;89.81;99981.13;20933552;28;20231;-62
2021/10/12 13:20:22;;;;;;;2.83;2.47;;;;;;;13.13;89.92;99979.34;20955411;28;20256;-59
2021/10/12 13:30:26;;;;;;;3.20;2.47;;;;;;;12.98;84.31;99975.22;20875108;28;20218;-65
2021/10/12 13:40:28;;;;;;;2.80;1.87;;;;;;;12.79;84.33;99959.78;20949031;28;20266;-63
2021/10/12 13:50:37;;;;;;;2.63;1.87;;;;;;;12.91;90.07;99963.28;20915029;28;20226;-59
2021/10/12 14:00:39;;;;;;;1.73;1.60;;;;;;;12.56;81.73;99963.38;20916609;28;20328;-67
2021/10/12 14:10:44;;;;;;;2.53;2.00;;;;;;;12.31;92.43;99956.44;20910728;28;20334;-62
2021/10/12 14:20:49;;;;;;;2.80;1.47;;;;;;;12.09;81.36;99948.31;20920757;28;20237;-61
2021/10/12 14:30:53;;;;;;;3.17;1.90;;;;;;;11.79;90.01;99947.00;20969712;28;20227;-66
2021/10/12 14:40:55;;;;;;;2.63;2.00;;;;;;;11.31;92.07;99956.81;20906479;28;20700;-65
2021/10/12 14:50:59;;;;;;;5.80;2.30;;;;;;;10.88;96.03;99953.69;20934912;28;20231;-59
2021/10/12 15:01:01;;;;;;;2.87;2.30;;;;;;;10.50;100.00;99955.56;20897882;28;20366;-62
2021/10/12 15:11:05;;;;;;;4.63;2.60;;;;;;;10.01;100.00;99953.59;20914573;28;20223;-61
2021/10/12 15:21:08;;;;;;;4.03;2.80;;;;;;;9.48;100.00;99938.50;20931557;28;20929;-66
2021/10/12 15:31:14;;;;;;;3.53;2.60;;;;;;;8.91;100.00;99946.63;20896194;28;20257;-66
2021/10/12 15:41:17;;;;;;;2.83;2.53;;;;;;;8.62;100.00;99937.81;20887209;28;20304;-67
2021/10/12 15:51:23;;;;;;;7.60;3.83;;;;;;;8.55;100.00;99939.16;20900776;28;20269;-61
2021/10/12 16:01:26;;;;;;;12.17;6.63;;;;;;;8.05;100.00;99945.72;20929879;28;20230;-58
2021/10/12 16:21:31;;;;;;;15.57;7.73;;;;;;;8.47;100.00;99941.41;20953398;27;2195398;-64
2021/10/12 16:31:42;;;;;;;7.83;5.33;;;;;;;8.82;100.00;99945.38;21006110;28;20281;-63
2021/10/12 16:41:47;;;;;;;9.90;6.30;;;;;;;9.02;100.00;99944.16;21026637;28;20229;-71
2021/10/12 16:51:55;;;;;;;10.13;8.00;;;;;;;8.96;100.00;99964.00;21013390;28;20236;-70
2021/10/12 17:02:00;;;;;;;21.93;12.90;;;;;;;8.88;100.00;99957.47;21022127;28;20252;-68
2021/10/12 17:12:02;;;;;;;16.43;11.27;;;;;;;8.81;100.00;99978.31;21015992;28;20343;-63
2021/10/12 17:22:07;;;;;;;12.50;9.97;;;;;;;8.74;100.00;99984.94;21000215;28;20232;-69
2021/10/12 17:32:10;;;;;;;10.50;8.33;;;;;;;8.77;100.00;99984.75;20965173;28;20237;-68
2021/10/12 17:42:14;;;;;;;9.13;6.77;;;;;;;8.70;100.00;99986.06;20933211;28;20302;-62
2021/10/12 17:52:17;;;;;;;7.57;5.77;;;;;;;8.60;100.00;99985.78;20957857;28;20231;-59
2021/10/12 18:02:21;;;;;;;6.93;5.40;;;;;;;8.10;100.00;99991.44;20935192;28;20231;-60
2021/10/12 18:12:26;;;;;;;4.90;4.40;;;;;;;7.28;100.00;99990.06;20937043;28;20235;-59
2021/10/12 18:22:30;;;;;;;8.23;6.80;;;;;;;6.85;100.00;99993.31;21018970;28;20306;-63
2021/10/12 18:32:32;;;;;;;13.33;8.87;;;;;;;7.02;100.00;99984.41;21011283;28;20226;-57
2021/10/12 19:02:29;;;;;;;7.10;5.73;;;;;;;7.68;100.00;99991.31;20893497;27;20687;-65
2021/10/12 19:12:31;;;;;;;6.93;6.23;;;;;;;7.74;100.00;99989.16;20919749;28;20807;-66
2021/10/12 19:22:36;;;;;;;7.73;6.80;;;;;;;7.68;100.00;99991.31;20940115;28;20233;-66
2021/10/12 19:32:38;;;;;;;10.87;8.00;;;;;;;7.47;100.00;99996.94;20951711;27;20239;-60
2021/10/12 19:42:43;;;;;;;11.50;8.87;;;;;;;7.47;100.00;99996.94;20964306;27;20610;-61
2021/10/12 19:52:46;;;;;;;9.70;8.37;;;;;;;7.49;100.00;99997.66;20923719;27;20234;-66
2021/10/12 20:13:10;;;;;;;10.90;9.53;;;;;;;7.52;100.00;100009.91;20883202;28;20705;-69
2021/10/12 20:23:15;;;;;;;14.73;11.23;;;;;;;7.65;100.00;100015.38;20885826;28;20311;-63
2021/10/12 20:43:15;;;;;;;17.37;12.40;;;;;;;7.53;100.00;100022.25;20948258;27;20774;-63
2021/10/12 20:53:18;;;;;;;20.23;14.57;;;;;;;7.31;100.00;100017.31;20953480;27;20228;-59
2021/10/12 21:03:21;;;;;;;21.50;15.93;;;;;;;7.17;100.00;100035.78;20948368;28;20233;-59
2021/10/12 21:13:23;;;;;;;18.30;14.40;;;;;;;7.31;100.00;100022.59;20942398;28;20228;-62
2021/10/12 21:23:27;;;;;;;17.33;13.50;;;;;;;7.02;100.00;100032.16;20935328;27;20231;-65
2021/10/12 21:43:31;;;;;;;11.67;9.13;;;;;;;6.11;100.00;100027.25;21107017;27;20302;-59
2021/10/12 21:53:34;;;;;;;11.27;8.30;;;;;;;5.58;100.00;100026.34;21099607;28;20240;-62
2021/10/12 22:03:38;;;;;;;13.17;9.33;;;;;;;5.77;100.00;100024.53;21106134;28;20228;-68
2021/10/12 22:13:41;;;;;;;12.87;11.53;;;;;;;6.25;100.00;100036.28;21070057;28;20609;-59
2021/10/12 22:23:44;;;;;;;16.43;13.80;;;;;;;6.65;100.00;100030.63;21026146;28;20238;-61
2021/10/12 22:43:45;;;;;;;16.60;14.80;;;;;;;7.04;100.00;100032.06;20971258;27;20662;-64
2021/10/12 22:53:47;;;;;;;18.90;13.97;;;;;;;7.11;100.00;100025.50;20946297;27;20223;-65
2021/10/12 23:03:51;;;;;;;17.33;14.37;;;;;;;7.06;100.00;100030.19;20950147;28;20277;-58
2021/10/12 23:23:50;;;;;;;15.70;12.70;;;;;;;6.88;100.00;100035.53;21013910;27;20656;-66
2021/10/12 23:33:54;;;;;;;14.67;12.10;;;;;;;6.95;100.00;100040.53;21019927;28;20230;-69
2021/10/12 23:43:57;;;;;;;13.97;12.47;;;;;;;6.96;100.00;100029.00;21011397;28;20218;-64
2021/10/12 23:54:00;;;;;;;14.40;12.47;;;;;;;6.99;100.00;100031.50;20969176;28;20227;-62
